Time;durP1;ratioP1;P1;durP2;ratioP2;P2;SDS_P1;SDS_P2;PMS_P1;PMS_P2;Temp;Humidity;BMP_temperature;BMP_pressure;BME280_temperature;BME280_humidity;BME280_pressure;Samples;Min_cycle;Max_cycle;Signal;HPM_P1;HPM_P2
2022/12/29 00:01:05;;;;;;;5.32;1.70;;;;;;;;;;5056615;28;20471;-60
2022/12/29 00:03:34;;;;;;;5.15;1.90;;;;;;;;;;5089973;28;20151;-60
2022/12/29 00:06:04;;;;;;;5.30;1.80;;;;;;;;;;5090037;28;20090;-60
2022/12/29 00:08:39;;;;;;;4.80;1.90;;;;;;;;;;5072895;28;20435;-60
2022/12/29 00:11:23;;;;;;;4.05;1.20;;;;;;;;;;5090349;28;20427;-60
2022/12/29 00:16:44;;;;;;;6.78;1.40;;;;;;;;;;5052452;28;20051;-60
2022/12/29 00:36:36;;;;;;;3.03;1.20;;;;;;;;;;5089536;28;20508;-60
2022/12/29 00:44:53;;;;;;;2.53;0.70;;;;;;;;;;5069040;28;20165;-60
2022/12/29 00:47:23;;;;;;;2.35;0.50;;;;;;;;;;5010140;28;20041;-61
2022/12/29 00:49:52;;;;;;;2.13;0.80;;;;;;;;;;5029142;28;20469;-60
2022/12/29 00:52:22;;;;;;;3.92;0.77;;;;;;;;;;4980294;28;20049;-60
2022/12/29 00:54:52;;;;;;;2.75;1.00;;;;;;;;;;5012815;28;20433;-60
2022/12/29 00:57:21;;;;;;;3.10;0.95;;;;;;;;;;5017788;28;20576;-61
2022/12/29 00:59:51;;;;;;;1.95;0.82;;;;;;;;;;5019113;28;20057;-61
2022/12/29 01:02:20;;;;;;;3.90;0.93;;;;;;;;;;5022795;28;20061;-61
2022/12/29 01:04:49;;;;;;;7.38;1.27;;;;;;;;;;5012298;28;20053;-60
2022/12/29 01:07:19;;;;;;;2.03;0.88;;;;;;;;;;5028808;28;20200;-61
2022/12/29 01:12:44;;;;;;;2.40;0.98;;;;;;;;;;5028866;28;20058;-61
2022/12/29 01:15:15;;;;;;;3.85;1.00;;;;;;;;;;4996321;28;20056;-61
2022/12/29 01:17:46;;;;;;;6.35;1.27;;;;;;;;;;5029147;28;20061;-60
2022/12/29 01:20:15;;;;;;;2.08;1.05;;;;;;;;;;5009165;28;20048;-61
2022/12/29 01:22:45;;;;;;;2.75;1.10;;;;;;;;;;5008895;28;20121;-60
2022/12/29 01:25:15;;;;;;;6.63;1.20;;;;;;;;;;5008771;28;20061;-60
2022/12/29 01:27:45;;;;;;;8.15;1.33;;;;;;;;;;5008930;28;20062;-60
2022/12/29 01:30:14;;;;;;;2.65;1.20;;;;;;;;;;4960682;28;20058;-60
2022/12/29 01:32:45;;;;;;;2.45;0.90;;;;;;;;;;5004902;28;20046;-60
2022/12/29 01:35:14;;;;;;;3.03;0.88;;;;;;;;;;4977795;28;20126;-60
2022/12/29 01:37:46;;;;;;;3.25;0.75;;;;;;;;;;4969663;28;20051;-60
2022/12/29 01:40:16;;;;;;;1.10;0.60;;;;;;;;;;4969791;28;20059;-61
2022/12/29 01:42:46;;;;;;;2.38;1.10;;;;;;;;;;4969825;28;20121;-60
2022/12/29 01:45:17;;;;;;;3.10;0.98;;;;;;;;;;4969592;28;20043;-60
2022/12/29 01:48:01;;;;;;;7.20;1.00;;;;;;;;;;4918412;28;20050;-61
2022/12/29 01:50:34;;;;;;;3.08;0.98;;;;;;;;;;4950727;28;20059;-60
2022/12/29 01:53:13;;;;;;;4.57;2.00;;;;;;;;;;4950308;28;20528;-60
2022/12/29 01:55:59;;;;;;;5.68;1.80;;;;;;;;;;4950692;28;20067;-60
2022/12/29 01:58:34;;;;;;;7.05;2.25;;;;;;;;;;4964479;28;20050;-61
2022/12/29 02:01:04;;;;;;;7.22;2.20;;;;;;;;;;4921405;29;20539;-60
2022/12/29 02:03:37;;;;;;;8.30;1.67;;;;;;;;;;4905614;29;20053;-60
2022/12/29 02:06:21;;;;;;;4.53;1.60;;;;;;;;;;4874690;29;20053;-60
2022/12/29 02:08:53;;;;;;;4.70;1.27;;;;;;;;;;4889847;29;20065;-61
2022/12/29 02:11:27;;;;;;;3.22;1.10;;;;;;;;;;4896130;29;20056;-60
2022/12/29 02:13:57;;;;;;;8.52;1.20;;;;;;;;;;4912304;29;20078;-60
2022/12/29 02:16:36;;;;;;;11.27;2.65;;;;;;;;;;4909632;29;20820;-60
2022/12/29 02:19:32;;;;;;;7.20;2.33;;;;;;;;;;4891351;29;20061;-60
2022/12/29 02:22:04;;;;;;;6.72;2.17;;;;;;;;;;4898013;29;20056;-60
2022/12/29 02:24:34;;;;;;;10.43;1.75;;;;;;;;;;4923494;29;20054;-61
2022/12/29 02:27:46;;;;;;;5.80;1.70;;;;;;;;;;4930772;29;20059;-60
2022/12/29 02:30:37;;;;;;;5.47;1.85;;;;;;;;;;4945357;29;20091;-61
2022/12/29 02:33:50;;;;;;;6.15;1.98;;;;;;;;;;4949910;28;20050;-61
2022/12/29 02:36:29;;;;;;;5.20;1.50;;;;;;;;;;4924379;28;20050;-60
2022/12/29 02:39:17;;;;;;;6.10;1.80;;;;;;;;;;4956590;28;20059;-61
2022/12/29 02:42:08;;;;;;;7.32;2.00;;;;;;;;;;4943668;28;20060;-61
2022/12/29 02:45:09;;;;;;;8.60;2.05;;;;;;;;;;4927885;29;20052;-60
2022/12/29 02:48:23;;;;;;;9.63;2.08;;;;;;;;;;4918182;29;20504;-60
2022/12/29 02:51:18;;;;;;;7.20;2.40;;;;;;;;;;4901482;29;20052;-60
2022/12/29 02:56:47;;;;;;;8.15;2.28;;;;;;;;;;4919110;29;20061;-61
2022/12/29 02:59:18;;;;;;;6.75;1.98;;;;;;;;;;4939235;29;20061;-61
2022/12/29 03:02:17;;;;;;;5.97;2.15;;;;;;;;;;4936259;29;20056;-61
2022/12/29 03:05:25;;;;;;;5.10;1.83;;;;;;;;;;4939837;29;20059;-61
2022/12/29 03:08:05;;;;;;;5.40;1.80;;;;;;;;;;4952821;29;20055;-60
2022/12/29 03:11:01;;;;;;;4.70;1.83;;;;;;;;;;4972052;28;20419;-60
2022/12/29 03:16:35;;;;;;;6.80;2.13;;;;;;;;;;4933796;29;20160;-61
2022/12/29 03:19:37;;;;;;;7.43;2.67;;;;;;;;;;4933718;29;20416;-61
2022/12/29 03:22:30;;;;;;;7.32;3.25;;;;;;;;;;4914259;29;20056;-61
2022/12/29 03:25:13;;;;;;;9.30;3.30;;;;;;;;;;4914403;29;20056;-61
2022/12/29 03:27:57;;;;;;;6.70;2.65;;;;;;;;;;4892584;29;20406;-61
2022/12/29 03:30:32;;;;;;;7.28;2.72;;;;;;;;;;4914448;29;20086;-61
2022/12/29 03:33:07;;;;;;;6.57;2.80;;;;;;;;;;4914273;29;20416;-60
2022/12/29 03:35:41;;;;;;;8.23;2.20;;;;;;;;;;4895284;29;20079;-61
2022/12/29 03:38:28;;;;;;;6.97;1.98;;;;;;;;;;4952471;28;20058;-61
2022/12/29 03:41:01;;;;;;;9.90;2.60;;;;;;;;;;4938589;29;20099;-60
2022/12/29 03:43:31;;;;;;;5.03;2.03;;;;;;;;;;4934965;29;20056;-61
2022/12/29 03:46:02;;;;;;;6.95;2.67;;;;;;;;;;4952143;28;20047;-61
2022/12/29 03:48:32;;;;;;;7.53;2.25;;;;;;;;;;4929601;28;20055;-60
2022/12/29 03:51:02;;;;;;;7.07;2.53;;;;;;;;;;4921836;29;20048;-60
2022/12/29 03:53:31;;;;;;;6.40;2.42;;;;;;;;;;4933004;29;20437;-60
2022/12/29 03:56:02;;;;;;;7.38;2.85;;;;;;;;;;4893122;29;20051;-61
2022/12/29 03:58:33;;;;;;;7.22;2.60;;;;;;;;;;4932693;29;20059;-61
2022/12/29 04:01:08;;;;;;;12.13;3.50;;;;;;;;;;4907990;29;20045;-61
2022/12/29 04:03:39;;;;;;;8.75;3.45;;;;;;;;;;4910133;29;20049;-60
2022/12/29 04:06:10;;;;;;;11.40;3.80;;;;;;;;;;4932595;29;20044;-60
2022/12/29 04:08:46;;;;;;;9.90;3.47;;;;;;;;;;4947142;29;20051;-61
2022/12/29 04:11:16;;;;;;;9.55;3.47;;;;;;;;;;4924213;29;20056;-61
2022/12/29 04:13:46;;;;;;;8.02;3.20;;;;;;;;;;4898064;29;20544;-60
2022/12/29 04:16:20;;;;;;;10.63;3.05;;;;;;;;;;4879273;29;20102;-60
2022/12/29 04:18:50;;;;;;;7.50;2.88;;;;;;;;;;4894591;29;20064;-60
2022/12/29 04:21:21;;;;;;;7.65;3.10;;;;;;;;;;4907598;29;20080;-61
2022/12/29 04:23:51;;;;;;;8.95;2.78;;;;;;;;;;4855785;29;20082;-60
2022/12/29 04:26:21;;;;;;;8.35;3.15;;;;;;;;;;4838803;29;20919;-60
2022/12/29 04:28:58;;;;;;;10.52;3.70;;;;;;;;;;4871611;29;20418;-61
2022/12/29 04:31:47;;;;;;;8.50;3.47;;;;;;;;;;4908255;29;20052;-61
2022/12/29 04:34:19;;;;;;;7.63;2.90;;;;;;;;;;4889466;29;20049;-60
2022/12/29 04:36:49;;;;;;;8.77;3.03;;;;;;;;;;4875626;29;20052;-61
2022/12/29 04:39:18;;;;;;;9.07;2.83;;;;;;;;;;4875487;29;20505;-60
2022/12/29 04:41:48;;;;;;;10.13;3.53;;;;;;;;;;4871447;29;20061;-61
2022/12/29 04:44:21;;;;;;;8.35;3.13;;;;;;;;;;4875577;29;20068;-61
2022/12/29 04:47:26;;;;;;;10.10;2.83;;;;;;;;;;4892915;29;20068;-60
2022/12/29 04:50:22;;;;;;;9.43;2.03;;;;;;;;;;4863783;29;20061;-60
2022/12/29 04:53:05;;;;;;;6.47;1.98;;;;;;;;;;4858600;29;20049;-61
2022/12/29 04:55:36;;;;;;;5.38;2.35;;;;;;;;;;4893864;29;20059;-60
2022/12/29 04:58:06;;;;;;;7.30;2.20;;;;;;;;;;4893990;29;20057;-60
2022/12/29 05:00:36;;;;;;;6.93;2.63;;;;;;;;;;4874749;29;20064;-61
2022/12/29 05:03:06;;;;;;;8.68;3.03;;;;;;;;;;4875136;29;20057;-60
2022/12/29 05:05:39;;;;;;;8.38;2.70;;;;;;;;;;4846651;29;20638;-60
2022/12/29 05:08:09;;;;;;;7.50;2.28;;;;;;;;;;4833049;29;20050;-61
2022/12/29 05:10:39;;;;;;;6.70;2.15;;;;;;;;;;4814074;29;20135;-60
2022/12/29 05:13:12;;;;;;;6.57;2.05;;;;;;;;;;4801899;29;20054;-60
2022/12/29 05:15:51;;;;;;;7.22;3.30;;;;;;;;;;4809669;29;20062;-61
2022/12/29 05:18:22;;;;;;;12.25;3.38;;;;;;;;;;4819987;29;20058;-61
2022/12/29 05:20:52;;;;;;;11.80;2.92;;;;;;;;;;4844922;29;20057;-61
2022/12/29 05:23:23;;;;;;;8.25;2.90;;;;;;;;;;4874968;29;20059;-61
2022/12/29 05:26:02;;;;;;;;;;;;;;;;;;4875096;29;20067;-60
2022/12/29 05:29:04;;;;;;;6.85;1.95;;;;;;;;;;4838320;29;19928;-61
2022/12/29 05:31:35;;;;;;;7.88;2.17;;;;;;;;;;4837711;29;20057;-61
2022/12/29 05:34:06;;;;;;;7.07;2.33;;;;;;;;;;4807747;29;20484;-60
2022/12/29 05:36:35;;;;;;;6.88;2.13;;;;;;;;;;4804457;29;20059;-61
2022/12/29 05:39:07;;;;;;;7.05;2.50;;;;;;;;;;4818866;29;20504;-60
2022/12/29 05:41:38;;;;;;;12.18;2.72;;;;;;;;;;4819599;29;20092;-60
2022/12/29 05:44:16;;;;;;;7.22;2.13;;;;;;;;;;4852336;29;20050;-60
2022/12/29 05:46:54;;;;;;;6.13;2.10;;;;;;;;;;4853728;29;20041;-61
2022/12/29 05:49:59;;;;;;;8.90;1.95;;;;;;;;;;4836197;29;20061;-60
2022/12/29 05:52:49;;;;;;;4.20;2.22;;;;;;;;;;4825159;29;20050;-61
2022/12/29 05:55:19;;;;;;;7.53;2.30;;;;;;;;;;4823254;29;20439;-60
2022/12/29 05:57:53;;;;;;;7.10;2.15;;;;;;;;;;4833605;29;20058;-60
2022/12/29 06:00:23;;;;;;;6.18;2.33;;;;;;;;;;4819004;29;20433;-61
2022/12/29 06:02:52;;;;;;;6.25;2.40;;;;;;;;;;4816065;29;20063;-61
2022/12/29 06:05:22;;;;;;;5.90;1.98;;;;;;;;;;4831770;29;20058;-61
2022/12/29 06:07:53;;;;;;;6.53;2.17;;;;;;;;;;4822598;29;20058;-60
2022/12/29 06:10:23;;;;;;;5.07;1.83;;;;;;;;;;4834044;29;20073;-61
2022/12/29 06:13:18;;;;;;;8.57;2.13;;;;;;;;;;4755017;30;20059;-61
2022/12/29 06:15:50;;;;;;;6.28;2.42;;;;;;;;;;4788237;29;20214;-61
2022/12/29 06:18:21;;;;;;;5.22;2.00;;;;;;;;;;4795477;29;20055;-61
2022/12/29 06:20:52;;;;;;;10.65;2.20;;;;;;;;;;4819537;29;20774;-61
2022/12/29 06:23:24;;;;;;;6.03;2.05;;;;;;;;;;4792568;29;20054;-60
2022/12/29 06:25:54;;;;;;;3.58;1.77;;;;;;;;;;4825208;29;20046;-60
2022/12/29 06:28:24;;;;;;;7.38;1.85;;;;;;;;;;4840790;29;20057;-60
2022/12/29 06:30:54;;;;;;;6.03;1.55;;;;;;;;;;4833491;29;20062;-61
2022/12/29 06:33:23;;;;;;;4.05;1.77;;;;;;;;;;4822388;29;20058;-61
2022/12/29 06:35:53;;;;;;;6.05;1.90;;;;;;;;;;4829223;29;20057;-61
2022/12/29 06:38:22;;;;;;;6.22;1.92;;;;;;;;;;4859254;29;20052;-62
2022/12/29 06:40:52;;;;;;;7.30;2.00;;;;;;;;;;4847684;29;20119;-61
2022/12/29 06:43:44;;;;;;;4.35;2.08;;;;;;;;;;4834462;29;20175;-61
2022/12/29 06:46:25;;;;;;;5.90;1.60;;;;;;;;;;4837671;29;20054;-61
2022/12/29 06:48:54;;;;;;;6.85;2.15;;;;;;;;;;4847431;29;20055;-61
2022/12/29 06:51:24;;;;;;;6.43;2.08;;;;;;;;;;4839296;29;20069;-61
2022/12/29 06:53:54;;;;;;;6.43;2.20;;;;;;;;;;4851545;29;20064;-61
2022/12/29 06:56:23;;;;;;;12.45;3.10;;;;;;;;;;4874581;29;20395;-61
2022/12/29 06:58:52;;;;;;;7.13;2.40;;;;;;;;;;4874713;29;20065;-61
2022/12/29 07:01:22;;;;;;;8.52;3.00;;;;;;;;;;4859160;29;20057;-61
2022/12/29 07:03:51;;;;;;;5.93;2.40;;;;;;;;;;4847842;29;20072;-61
2022/12/29 07:06:21;;;;;;;9.50;2.75;;;;;;;;;;4810122;29;20054;-61
2022/12/29 07:08:54;;;;;;;7.57;3.72;;;;;;;;;;4825260;29;20068;-61
2022/12/29 07:11:24;;;;;;;9.32;3.58;;;;;;;;;;4855595;29;20502;-61
2022/12/29 07:13:54;;;;;;;9.95;3.72;;;;;;;;;;4837133;29;20545;-61
2022/12/29 07:16:23;;;;;;;8.38;3.50;;;;;;;;;;4867231;29;20056;-61
2022/12/29 07:18:53;;;;;;;10.70;3.83;;;;;;;;;;4917060;29;20495;-61
2022/12/29 07:21:23;;;;;;;6.22;2.95;;;;;;;;;;4970024;28;20232;-61
2022/12/29 07:23:53;;;;;;;6.55;2.65;;;;;;;;;;5050840;28;20049;-61
2022/12/29 07:26:24;;;;;;;7.75;3.20;;;;;;;;;;5015615;28;20055;-63
2022/12/29 07:28:57;;;;;;;7.47;2.95;;;;;;;;;;5071080;28;20060;-61
2022/12/29 07:31:27;;;;;;;9.10;3.08;;;;;;;;;;5073173;28;20052;-61
2022/12/29 07:33:57;;;;;;;8.00;3.38;;;;;;;;;;5073401;28;20400;-61
2022/12/29 07:36:26;;;;;;;6.45;2.63;;;;;;;;;;5054438;28;20060;-61
2022/12/29 07:39:03;;;;;;;6.00;2.60;;;;;;;;;;5040258;28;20071;-61
2022/12/29 07:41:32;;;;;;;8.55;2.38;;;;;;;;;;5072960;28;20060;-61
2022/12/29 07:44:03;;;;;;;7.85;2.67;;;;;;;;;;5033900;28;20436;-61
2022/12/29 07:46:37;;;;;;;8.13;2.63;;;;;;;;;;5050584;28;20544;-61
2022/12/29 07:49:24;;;;;;;7.13;2.00;;;;;;;;;;5000907;28;20524;-61
2022/12/29 07:51:53;;;;;;;7.40;2.08;;;;;;;;;;5033801;28;20053;-61
2022/12/29 07:54:24;;;;;;;7.53;2.50;;;;;;;;;;5050391;28;20057;-61
2022/12/29 07:56:54;;;;;;;7.10;1.85;;;;;;;;;;5050334;28;20064;-61
2022/12/29 07:59:24;;;;;;;5.25;2.00;;;;;;;;;;5001256;28;20504;-61
2022/12/29 08:01:53;;;;;;;5.43;2.38;;;;;;;;;;5050328;28;20408;-61
2022/12/29 08:04:23;;;;;;;6.35;2.00;;;;;;;;;;5033966;28;20053;-61
2022/12/29 08:06:52;;;;;;;8.07;1.98;;;;;;;;;;5050215;28;20093;-61
2022/12/29 08:09:22;;;;;;;5.75;2.35;;;;;;;;;;5000952;28;20057;-61
2022/12/29 08:11:51;;;;;;;4.95;2.15;;;;;;;;;;4984541;28;20053;-61
2022/12/29 08:14:21;;;;;;;6.57;2.38;;;;;;;;;;5050049;28;20068;-61
2022/12/29 08:16:50;;;;;;;8.15;2.67;;;;;;;;;;5000554;28;20061;-61
2022/12/29 08:19:20;;;;;;;8.02;2.88;;;;;;;;;;5050096;28;20065;-61
2022/12/29 08:21:52;;;;;;;6.50;2.92;;;;;;;;;;5072878;28;20048;-62
2022/12/29 08:24:22;;;;;;;6.38;2.42;;;;;;;;;;5090143;28;20048;-61
2022/12/29 08:26:52;;;;;;;7.72;2.22;;;;;;;;;;5089760;28;20048;-61
2022/12/29 08:29:21;;;;;;;7.70;2.70;;;;;;;;;;5089844;28;20052;-61
2022/12/29 08:31:50;;;;;;;5.78;2.28;;;;;;;;;;5037048;28;20049;-61
2022/12/29 08:34:20;;;;;;;6.20;1.92;;;;;;;;;;5086160;28;20488;-61
2022/12/29 08:36:49;;;;;;;6.22;1.75;;;;;;;;;;5049376;28;20436;-61
2022/12/29 08:39:18;;;;;;;6.45;1.92;;;;;;;;;;5016598;28;20057;-61
2022/12/29 08:41:48;;;;;;;4.15;1.75;;;;;;;;;;5032685;28;20056;-61
2022/12/29 08:44:17;;;;;;;4.78;1.88;;;;;;;;;;5049705;28;20073;-61
2022/12/29 08:46:47;;;;;;;9.15;2.13;;;;;;;;;;5016411;28;20060;-61
2022/12/29 08:49:17;;;;;;;8.52;2.33;;;;;;;;;;5016410;28;20060;-60
2022/12/29 08:51:46;;;;;;;9.43;3.10;;;;;;;;;;5049571;28;20184;-61
2022/12/29 08:54:15;;;;;;;9.57;4.53;;;;;;;;;;5016180;28;20065;-61
2022/12/29 08:56:46;;;;;;;12.02;3.38;;;;;;;;;;5012707;28;20842;-60
2022/12/29 08:59:16;;;;;;;5.35;2.38;;;;;;;;;;5009378;28;20054;-61
2022/12/29 09:01:48;;;;;;;8.07;2.75;;;;;;;;;;4989854;28;20534;-61
2022/12/29 09:04:18;;;;;;;10.40;3.00;;;;;;;;;;4989760;28;20066;-61
2022/12/29 09:06:47;;;;;;;6.55;2.47;;;;;;;;;;4989780;28;20491;-61
2022/12/29 09:09:16;;;;;;;5.93;1.80;;;;;;;;;;4957505;28;20161;-61
2022/12/29 09:11:46;;;;;;;8.50;2.58;;;;;;;;;;4989765;28;20050;-61
2022/12/29 09:14:15;;;;;;;6.25;2.53;;;;;;;;;;4993183;28;20434;-60
2022/12/29 09:19:32;;;;;;;6.65;2.45;;;;;;;;;;5028676;28;20049;-61
2022/12/29 09:22:02;;;;;;;11.50;3.92;;;;;;;;;;5029046;28;20073;-61
2022/12/29 09:24:32;;;;;;;9.77;4.00;;;;;;;;;;4996692;28;20053;-61
2022/12/29 09:27:01;;;;;;;9.52;3.50;;;;;;;;;;5028791;28;20053;-61
2022/12/29 09:29:31;;;;;;;9.18;3.13;;;;;;;;;;5028567;28;20061;-61
2022/12/29 09:32:01;;;;;;;5.43;2.53;;;;;;;;;;5028896;28;20057;-61
2022/12/29 09:34:35;;;;;;;4.80;2.30;;;;;;;;;;5040287;28;20096;-61
2022/12/29 09:37:04;;;;;;;6.13;2.30;;;;;;;;;;5048820;28;20056;-61
2022/12/29 09:39:34;;;;;;;6.68;3.25;;;;;;;;;;5003193;28;20045;-61
2022/12/29 09:42:37;;;;;;;11.60;4.95;;;;;;;;;;5028893;28;20061;-61
2022/12/29 09:45:18;;;;;;;8.40;3.45;;;;;;;;;;4996009;28;20064;-61
2022/12/29 09:47:48;;;;;;;9.68;3.47;;;;;;;;;;5032932;28;20041;-62
2022/12/29 09:50:26;;;;;;;8.35;3.42;;;;;;;;;;5033016;28;20060;-61
2022/12/29 09:53:23;;;;;;;12.30;4.47;;;;;;;;;;5032876;28;20052;-61
2022/12/29 09:55:59;;;;;;;9.95;4.43;;;;;;;;;;5032664;28;20124;-61
2022/12/29 09:58:33;;;;;;;11.45;5.20;;;;;;;;;;5032718;28;20076;-61
2022/12/29 10:01:17;;;;;;;11.20;5.15;;;;;;;;;;4999667;28;20049;-62
2022/12/29 10:03:50;;;;;;;8.77;4.80;;;;;;;;;;5032624;28;20073;-61
2022/12/29 10:06:33;;;;;;;9.70;4.15;;;;;;;;;;5015996;28;20516;-61
2022/12/29 10:09:42;;;;;;;11.05;3.58;;;;;;;;;;5032419;28;20084;-61
2022/12/29 10:12:44;;;;;;;7.57;3.22;;;;;;;;;;5072610;28;20048;-60
2022/12/29 10:15:41;;;;;;;7.55;2.65;;;;;;;;;;5083221;28;20044;-61
2022/12/29 10:18:22;;;;;;;15.50;5.30;;;;;;;;;;5033026;28;20044;-61
2022/12/29 10:21:27;;;;;;;15.27;5.80;;;;;;;;;;5069854;28;20614;-61
2022/12/29 10:23:58;;;;;;;13.68;6.65;;;;;;;;;;4963917;28;20506;-61
2022/12/29 10:26:33;;;;;;;13.75;6.47;;;;;;;;;;5012217;28;20077;-61
2022/12/29 10:29:14;;;;;;;14.60;6.22;;;;;;;;;;5012059;28;20065;-61
2022/12/29 10:31:54;;;;;;;18.10;7.75;;;;;;;;;;4963522;28;20460;-61
2022/12/29 10:34:50;;;;;;;12.35;6.28;;;;;;;;;;4996167;28;20049;-61
2022/12/29 10:37:45;;;;;;;16.77;7.78;;;;;;;;;;5015695;28;20053;-62
2022/12/29 10:40:25;;;;;;;14.15;7.38;;;;;;;;;;5031845;28;20046;-61
2022/12/29 10:42:57;;;;;;;16.00;7.63;;;;;;;;;;5032044;28;20049;-61
2022/12/29 10:45:33;;;;;;;15.48;6.97;;;;;;;;;;4998959;28;20065;-61
2022/12/29 10:48:13;;;;;;;12.90;6.82;;;;;;;;;;5031497;28;20086;-61
2022/12/29 10:50:42;;;;;;;11.82;5.30;;;;;;;;;;5031778;28;20061;-61
2022/12/29 10:53:26;;;;;;;10.90;6.15;;;;;;;;;;4992115;28;20100;-61
2022/12/29 10:55:56;;;;;;;8.95;4.55;;;;;;;;;;4972716;28;20454;-62
2022/12/29 10:58:28;;;;;;;11.68;3.90;;;;;;;;;;4997685;28;20062;-61
2022/12/29 11:00:57;;;;;;;11.02;3.83;;;;;;;;;;5011930;28;20050;-61
2022/12/29 11:03:46;;;;;;;7.60;3.40;;;;;;;;;;5011672;28;20062;-61
2022/12/29 11:06:27;;;;;;;6.53;2.80;;;;;;;;;;4979375;28;20050;-61
2022/12/29 11:09:10;;;;;;;5.50;2.38;;;;;;;;;;5011524;28;20061;-61
2022/12/29 11:11:40;;;;;;;5.50;2.13;;;;;;;;;;4995106;28;20054;-61
2022/12/29 11:14:13;;;;;;;6.30;2.42;;;;;;;;;;4962651;28;20054;-62
2022/12/29 11:16:44;;;;;;;6.47;2.53;;;;;;;;;;5011512;28;20605;-62
2022/12/29 11:19:25;;;;;;;6.68;2.80;;;;;;;;;;5011467;28;20054;-62
2022/12/29 11:21:55;;;;;;;6.38;2.25;;;;;;;;;;4962760;28;20605;-61
2022/12/29 11:24:29;;;;;;;5.82;2.30;;;;;;;;;;4978793;28;20421;-61
2022/12/29 11:27:24;;;;;;;4.90;2.00;;;;;;;;;;4987496;28;20060;-61
2022/12/29 11:29:54;;;;;;;5.40;1.90;;;;;;;;;;5036196;28;20521;-62
2022/12/29 11:32:26;;;;;;;3.85;1.88;;;;;;;;;;5039701;28;20056;-62
2022/12/29 11:34:58;;;;;;;3.83;1.13;;;;;;;;;;5087244;28;20055;-62
2022/12/29 11:37:39;;;;;;;6.82;1.20;;;;;;;;;;5107322;28;20511;-61
2022/12/29 11:40:20;;;;;;;3.50;1.20;;;;;;;;;;5079731;28;20044;-62
2022/12/29 11:42:56;;;;;;;4.45;1.52;;;;;;;;;;5071206;28;20558;-62
2022/12/29 11:45:32;;;;;;;3.00;1.27;;;;;;;;;;5020976;28;20123;-61
2022/12/29 11:48:09;;;;;;;2.88;1.20;;;;;;;;;;5079802;28;20045;-62
2022/12/29 11:50:41;;;;;;;2.53;1.08;;;;;;;;;;5024466;28;20059;-61
2022/12/29 11:53:45;;;;;;;7.65;1.52;;;;;;;;;;5027118;28;20044;-61
2022/12/29 11:56:18;;;;;;;2.17;0.98;;;;;;;;;;5014991;28;20055;-62
2022/12/29 11:58:50;;;;;;;2.05;1.00;;;;;;;;;;5084594;28;20055;-62
2022/12/29 12:01:31;;;;;;;4.93;2.17;;;;;;;;;;5073939;28;20060;-62
2022/12/29 12:04:13;;;;;;;3.22;0.77;;;;;;;;;;5068669;28;20045;-62
2022/12/29 12:06:57;;;;;;;1.85;0.70;;;;;;;;;;5068039;28;20064;-62
2022/12/29 12:09:49;;;;;;;3.13;0.73;;;;;;;;;;5066205;28;20049;-62
2022/12/29 12:12:41;;;;;;;1.85;0.50;;;;;;;;;;5070803;28;20495;-62
2022/12/29 12:15:25;;;;;;;1.42;0.50;;;;;;;;;;5005482;28;20037;-62
2022/12/29 12:18:05;;;;;;;4.13;0.63;;;;;;;;;;5052257;28;20045;-61
2022/12/29 12:20:51;;;;;;;2.55;0.93;;;;;;;;;;5047852;28;20423;-62
2022/12/29 12:23:49;;;;;;;2.20;0.68;;;;;;;;;;5034128;28;20053;-61
2022/12/29 12:26:28;;;;;;;2.28;0.80;;;;;;;;;;4990312;28;20085;-61
2022/12/29 12:29:09;;;;;;;2.13;0.70;;;;;;;;;;4994910;28;20050;-62
2022/12/29 12:32:20;;;;;;;1.67;0.55;;;;;;;;;;5003173;28;20097;-61
2022/12/29 12:34:51;;;;;;;0.60;0.40;;;;;;;;;;4943891;28;20527;-61
2022/12/29 12:37:35;;;;;;;1.73;0.60;;;;;;;;;;4932483;29;20052;-61
2022/12/29 12:40:18;;;;;;;2.58;0.77;;;;;;;;;;4932528;29;20056;-62
2022/12/29 12:43:08;;;;;;;2.70;1.42;;;;;;;;;;4932494;29;20397;-61
2022/12/29 12:45:44;;;;;;;2.03;0.80;;;;;;;;;;4932459;29;20056;-62
2022/12/29 12:48:20;;;;;;;1.98;0.75;;;;;;;;;;4931501;29;20389;-62
2022/12/29 12:51:26;;;;;;;2.15;0.50;;;;;;;;;;4937680;29;20055;-62
2022/12/29 12:54:32;;;;;;;1.02;0.50;;;;;;;;;;4934787;29;20059;-62
2022/12/29 12:57:16;;;;;;;2.55;0.55;;;;;;;;;;4916383;29;20067;-63
2022/12/29 13:00:01;;;;;;;1.73;0.60;;;;;;;;;;4932276;28;20072;-62
2022/12/29 13:02:40;;;;;;;1.67;0.70;;;;;;;;;;4955187;28;20058;-62
2022/12/29 13:05:28;;;;;;;3.58;0.95;;;;;;;;;;4970871;28;20092;-62
2022/12/29 13:08:31;;;;;;;2.05;0.80;;;;;;;;;;4970415;28;20406;-62
2022/12/29 13:11:18;;;;;;;;;;;;;;;;;;4952109;28;20057;-62
2022/12/29 13:14:12;;;;;;;2.33;0.73;;;;;;;;;;5025247;28;19928;-62
2022/12/29 13:16:54;;;;;;;4.38;0.90;;;;;;;;;;5009045;28;20061;-62
2022/12/29 13:19:34;;;;;;;11.48;3.22;;;;;;;;;;5028703;28;20104;-62
2022/12/29 13:22:33;;;;;;;2.20;1.05;;;;;;;;;;4995630;28;20056;-62
2022/12/29 13:25:26;;;;;;;2.60;0.60;;;;;;;;;;4979750;28;20612;-62
2022/12/29 13:28:01;;;;;;;2.72;1.38;;;;;;;;;;5009414;28;20061;-62
2022/12/29 13:30:45;;;;;;;3.17;1.10;;;;;;;;;;5009456;28;20057;-63
2022/12/29 13:33:37;;;;;;;;;;;;;;;;;;4975017;28;20060;-62
2022/12/29 13:36:39;;;;;;;3.65;0.88;;;;;;;;;;5070899;28;19928;-62
2022/12/29 13:39:47;;;;;;;1.63;0.73;;;;;;;;;;4976641;28;20682;-62
2022/12/29 13:42:19;;;;;;;1.23;0.60;;;;;;;;;;4970186;28;20055;-64
2022/12/29 13:44:53;;;;;;;1.85;0.70;;;;;;;;;;4938126;28;20051;-63
2022/12/29 13:47:46;;;;;;;1.15;0.57;;;;;;;;;;4970043;28;20059;-63
2022/12/29 13:50:22;;;;;;;1.80;0.60;;;;;;;;;;4969209;28;20467;-63
2022/12/29 13:53:16;;;;;;;2.45;0.82;;;;;;;;;;4970192;28;20066;-64
2022/12/29 13:55:52;;;;;;;2.25;0.70;;;;;;;;;;4921823;28;20055;-64
2022/12/29 13:58:35;;;;;;;1.38;0.60;;;;;;;;;;4969814;28;20495;-63
2022/12/29 14:01:20;;;;;;;2.13;0.80;;;;;;;;;;5004844;28;20046;-63
2022/12/29 14:03:56;;;;;;;1.88;0.90;;;;;;;;;;4989207;28;20529;-65
2022/12/29 14:06:40;;;;;;;7.57;1.15;;;;;;;;;;4976219;28;20507;-64
2022/12/29 14:09:48;;;;;;;1.52;0.50;;;;;;;;;;4940893;28;20059;-63
2022/12/29 14:12:23;;;;;;;2.83;0.75;;;;;;;;;;4933998;29;20059;-64
2022/12/29 14:14:53;;;;;;;3.17;0.90;;;;;;;;;;4918860;29;20047;-64
2022/12/29 14:17:22;;;;;;;6.38;1.00;;;;;;;;;;4989268;28;20047;-65
2022/12/29 14:19:54;;;;;;;1.25;0.60;;;;;;;;;;4974328;28;20046;-64
2022/12/29 14:22:25;;;;;;;;;;;;;;;;;;4970280;28;20065;-65
2022/12/29 14:25:03;;;;;;;1.67;0.52;;;;;;;;;;4970115;28;19922;-64
2022/12/29 14:27:53;;;;;;;2.70;0.60;;;;;;;;;;4950346;28;20507;-65
2022/12/29 14:30:48;;;;;;;1.52;0.60;;;;;;;;;;4950297;29;20518;-64
2022/12/29 14:33:19;;;;;;;2.95;0.60;;;;;;;;;;4921011;29;20059;-63
2022/12/29 14:35:51;;;;;;;1.25;0.43;;;;;;;;;;4953996;29;20055;-62
2022/12/29 14:38:23;;;;;;;3.33;0.90;;;;;;;;;;4857796;29;20048;-63
2022/12/29 14:41:22;;;;;;;1.08;0.55;;;;;;;;;;4916152;29;20067;-63
2022/12/29 14:44:00;;;;;;;1.70;0.60;;;;;;;;;;4920476;29;20424;-63
2022/12/29 14:46:48;;;;;;;0.70;0.40;;;;;;;;;;4919144;29;20071;-63
2022/12/29 14:49:22;;;;;;;1.70;0.75;;;;;;;;;;4973057;28;20051;-63
2022/12/29 14:52:04;;;;;;;2.50;0.57;;;;;;;;;;4956751;28;20047;-63
2022/12/29 14:54:34;;;;;;;1.63;0.65;;;;;;;;;;4972979;28;20051;-63
2022/12/29 14:57:06;;;;;;;1.52;0.43;;;;;;;;;;4985276;28;20522;-64
2022/12/29 14:59:36;;;;;;;1.45;0.40;;;;;;;;;;4969579;28;20543;-63
2022/12/29 15:02:19;;;;;;;2.08;0.63;;;;;;;;;;4957886;28;20058;-63
2022/12/29 15:04:50;;;;;;;1.70;0.60;;;;;;;;;;5012096;28;20068;-64
2022/12/29 15:07:21;;;;;;;1.20;0.47;;;;;;;;;;4979118;28;20194;-64
2022/12/29 15:10:19;;;;;;;1.13;0.60;;;;;;;;;;5037635;28;20060;-63
2022/12/29 15:12:53;;;;;;;2.75;0.45;;;;;;;;;;4972809;28;20589;-63
2022/12/29 15:15:26;;;;;;;3.95;0.57;;;;;;;;;;4972884;28;20047;-63
2022/12/29 15:17:56;;;;;;;0.70;0.50;;;;;;;;;;4972715;28;20051;-62
2022/12/29 15:20:31;;;;;;;3.25;0.63;;;;;;;;;;4925501;28;20058;-63
2022/12/29 15:23:08;;;;;;;2.00;0.47;;;;;;;;;;4925683;28;20055;-62
2022/12/29 15:25:50;;;;;;;1.52;0.70;;;;;;;;;;4908361;28;20187;-64
2022/12/29 15:28:21;;;;;;;1.40;0.40;;;;;;;;;;4972374;28;20055;-63
2022/12/29 15:31:01;;;;;;;2.38;0.40;;;;;;;;;;4901633;29;20063;-64
2022/12/29 15:33:31;;;;;;;2.53;0.85;;;;;;;;;;4933673;29;20365;-63
2022/12/29 15:36:04;;;;;;;1.33;0.38;;;;;;;;;;4933702;29;20055;-65
2022/12/29 15:38:35;;;;;;;1.48;0.63;;;;;;;;;;4955315;28;20058;-63
2022/12/29 15:41:59;;;;;;;8.10;0.60;;;;;;;;;;4939858;28;20728;-63
2022/12/29 15:44:39;;;;;;;1.00;0.43;;;;;;;;;;4971923;28;20051;-63
2022/12/29 15:47:24;;;;;;;2.97;0.70;;;;;;;;;;4956019;28;20054;-63
2022/12/29 15:50:14;;;;;;;1.27;0.60;;;;;;;;;;5005460;28;20045;-63
2022/12/29 15:52:44;;;;;;;1.70;0.40;;;;;;;;;;5046849;28;20092;-63
2022/12/29 15:55:28;;;;;;;2.13;0.82;;;;;;;;;;4997439;28;20537;-63
2022/12/29 15:57:59;;;;;;;3.38;0.63;;;;;;;;;;5030378;28;20049;-63
2022/12/29 16:00:37;;;;;;;1.58;0.55;;;;;;;;;;5010246;28;20054;-65
2022/12/29 16:03:13;;;;;;;1.75;0.50;;;;;;;;;;4990781;28;20061;-63
2022/12/29 16:05:51;;;;;;;1.45;0.60;;;;;;;;;;4990964;28;20050;-63
2022/12/29 16:08:36;;;;;;;1.67;0.68;;;;;;;;;;4999585;28;20057;-64
2022/12/29 16:11:34;;;;;;;1.95;0.70;;;;;;;;;;4977809;28;20054;-63
2022/12/29 16:14:10;;;;;;;1.55;0.60;;;;;;;;;;5010528;28;20057;-63
2022/12/29 16:16:42;;;;;;;1.88;0.70;;;;;;;;;;5010265;28;20525;-63
2022/12/29 16:19:24;;;;;;;3.65;0.93;;;;;;;;;;5010359;28;20529;-63
2022/12/29 16:21:53;;;;;;;1.90;0.73;;;;;;;;;;5010096;28;20064;-63